Time;durP1;ratioP1;P1;durP2;ratioP2;P2;SDS_P1;SDS_P2;PMS_P1;PMS_P2;Temp;Humidity;BMP_temperature;BMP_pressure;BME280_temperature;BME280_humidity;BME280_pressure;Samples;Min_cycle;Max_cycle;Signal;HPM_P1;HPM_P2
2022/07/17 00:01:55;;;;;;;20.45;11.25;;;;;;;31.59;44.46;101527.28;4199363;28;20036;-59
2022/07/17 00:04:00;;;;;;;19.00;11.75;;;;;;;31.58;44.65;101520.78;4199311;28;20036;-59
2022/07/17 00:06:01;;;;;;;18.48;11.93;;;;;;;31.58;44.68;101522.78;4198567;28;20451;-59
2022/07/17 00:08:06;;;;;;;16.35;11.63;;;;;;;31.51;44.51;101511.16;4199157;28;20041;-60
2022/07/17 00:10:08;;;;;;;18.45;11.82;;;;;;;31.50;44.60;101510.34;4198742;28;20110;-59
2022/07/17 00:12:09;;;;;;;16.90;11.75;;;;;;;31.57;44.83;101518.31;4199096;28;20105;-59
2022/07/17 00:14:13;;;;;;;15.70;11.05;;;;;;;31.57;44.79;101521.13;4198688;28;20525;-59
2022/07/17 00:16:15;;;;;;;13.95;11.25;;;;;;;31.57;44.55;101521.13;4199040;28;20101;-59
2022/07/17 00:18:16;;;;;;;17.50;11.77;;;;;;;31.56;44.62;101517.44;4198957;28;20041;-59
2022/07/17 00:20:17;;;;;;;18.75;11.77;;;;;;;31.57;44.60;101523.97;4198719;28;20068;-59
2022/07/17 00:22:22;;;;;;;17.77;11.70;;;;;;;31.56;44.73;101527.94;4198936;28;20045;-59
2022/07/17 00:24:23;;;;;;;16.73;11.05;;;;;;;31.56;44.61;101530.78;4198573;28;20090;-59
2022/07/17 00:26:25;;;;;;;18.63;11.75;;;;;;;31.55;44.92;101529.13;4198858;28;20098;-59
2022/07/17 00:28:27;;;;;;;15.23;11.35;;;;;;;31.52;44.51;101526.97;4198563;28;20082;-59
2022/07/17 00:30:31;;;;;;;13.15;11.10;;;;;;;31.54;44.96;101536.78;4198797;28;20040;-59
2022/07/17 00:32:33;;;;;;;16.00;11.82;;;;;;;31.55;44.79;101541.25;4198575;28;20045;-59
2022/07/17 00:34:34;;;;;;;15.18;11.20;;;;;;;31.54;44.84;101536.78;4198818;28;20086;-59
2022/07/17 00:36:38;;;;;;;16.20;11.30;;;;;;;31.54;44.82;101535.97;4198789;28;20028;-59
2022/07/17 00:38:40;;;;;;;20.33;11.75;;;;;;;31.05;44.58;101465.59;4198467;28;20036;-59
2022/07/17 00:40:41;;;;;;;17.13;10.70;;;;;;;31.50;44.76;101527.31;4198700;28;20036;-59
2022/07/17 00:42:42;;;;;;;14.50;11.57;;;;;;;31.53;44.70;101525.81;4198184;28;20480;-58
2022/07/17 00:44:44;;;;;;;16.88;11.02;;;;;;;31.54;44.55;101545.25;4198199;28;20434;-58
2022/07/17 00:46:46;;;;;;;12.30;10.48;;;;;;;31.53;44.83;101539.97;4198061;28;20037;-59
2022/07/17 00:48:47;;;;;;;13.45;11.35;;;;;;;31.53;44.55;101540.78;4198290;28;20032;-59
2022/07/17 00:50:48;;;;;;;14.27;11.15;;;;;;;31.53;44.85;101545.63;4198376;28;20056;-59
2022/07/17 00:52:50;;;;;;;14.18;11.38;;;;;;;31.53;44.74;101548.44;4198106;28;20082;-59
2022/07/17 00:54:52;;;;;;;13.95;10.75;;;;;;;31.51;44.75;101551.59;4197933;28;20177;-59
2022/07/17 00:57:02;;;;;;;17.23;11.07;;;;;;;31.46;44.81;101542.47;4196619;28;20040;-59
2022/07/17 00:59:03;;;;;;;17.50;11.00;;;;;;;31.52;44.82;101560.91;4197277;28;20475;-59
2022/07/17 01:01:06;;;;;;;13.98;11.23;;;;;;;31.53;44.77;101569.06;4197798;28;20462;-59
2022/07/17 01:03:09;;;;;;;17.10;11.48;;;;;;;31.53;44.85;101573.91;4197888;28;20040;-59
2022/07/17 01:05:10;;;;;;;15.20;11.10;;;;;;;31.52;44.79;101577.88;4197791;28;20036;-59
2022/07/17 01:07:12;;;;;;;15.50;10.93;;;;;;;31.52;44.83;101583.53;4198255;28;20044;-59
2022/07/17 01:09:13;;;;;;;12.02;10.75;;;;;;;31.51;44.85;101579.06;4197649;28;20361;-59
2022/07/17 01:11:15;;;;;;;14.43;10.40;;;;;;;31.50;44.78;101592.38;4197597;28;20472;-59
2022/07/17 01:13:17;;;;;;;13.98;11.13;;;;;;;31.51;45.16;101598.84;4197789;28;20045;-59
2022/07/17 01:15:18;;;;;;;12.60;10.88;;;;;;;31.50;45.14;101600.03;4197705;28;20044;-59
2022/07/17 01:17:19;;;;;;;17.05;10.38;;;;;;;31.50;44.94;101594.38;4198073;28;20484;-59
2022/07/17 01:19:21;;;;;;;18.02;11.10;;;;;;;31.49;44.88;101595.53;4197436;28;20106;-59
2022/07/17 01:21:23;;;;;;;16.45;11.85;;;;;;;31.46;45.10;101590.56;4197690;28;20044;-59
2022/07/17 01:23:24;;;;;;;11.55;10.35;;;;;;;31.49;44.73;101604.84;4197204;28;20101;-59
2022/07/17 01:25:25;;;;;;;16.27;11.23;;;;;;;31.49;44.96;101601.19;4197937;28;20036;-59
2022/07/17 01:27:29;;;;;;;14.77;11.25;;;;;;;31.49;44.71;101596.38;4197963;28;20110;-59
2022/07/17 01:29:31;;;;;;;13.13;10.40;;;;;;;31.50;44.84;101597.19;4197887;28;20034;-59
2022/07/17 01:31:41;;;;;;;12.70;10.15;;;;;;;31.49;45.08;101595.53;4197871;28;20089;-59
2022/07/17 01:33:43;;;;;;;12.55;10.43;;;;;;;31.49;44.96;101578.56;4194816;28;20036;-60
2022/07/17 01:35:44;;;;;;;18.60;11.43;;;;;;;31.50;44.80;101594.38;4196632;28;20090;-59
2022/07/17 01:37:47;;;;;;;16.15;11.27;;;;;;;31.44;44.86;101575.94;4197504;28;20453;-59
2022/07/17 01:39:55;;;;;;;12.57;10.57;;;;;;;31.49;44.80;101578.56;4197142;28;20087;-59
2022/07/17 01:41:58;;;;;;;15.00;10.90;;;;;;;31.49;44.94;101576.56;4197419;28;20093;-59
2022/07/17 01:46:24;;;;;;;13.57;10.32;;;;;;;31.49;45.17;101585.06;4196438;28;20040;-59
2022/07/17 01:48:27;;;;;;;12.07;10.77;;;;;;;31.50;44.90;101591.53;4197177;28;20040;-60
2022/07/17 01:50:28;;;;;;;15.02;11.02;;;;;;;31.48;44.96;101593.88;4197360;28;20040;-59
2022/07/17 01:52:30;;;;;;;13.20;10.90;;;;;;;31.50;45.00;101597.19;4197295;28;20032;-59
2022/07/17 01:54:33;;;;;;;12.65;10.80;;;;;;;31.48;45.05;101597.53;4197510;28;20045;-58
2022/07/17 01:56:40;;;;;;;12.80;10.80;;;;;;;31.48;45.07;101600.38;4196006;28;20037;-58
2022/07/17 01:58:41;;;;;;;11.80;10.20;;;;;;;31.48;44.99;101603.19;4196982;28;20102;-58
2022/07/17 02:00:44;;;;;;;12.13;10.60;;;;;;;31.47;44.86;101603.53;4197625;28;20041;-59
2022/07/17 02:02:53;;;;;;;12.18;9.27;;;;;;;31.40;44.98;101597.56;4197320;28;20044;-59
2022/07/17 02:04:54;;;;;;;13.25;10.63;;;;;;;31.46;45.21;101608.34;4197640;28;20040;-59
2022/07/17 02:06:56;;;;;;;12.45;11.15;;;;;;;31.47;44.96;101609.19;4197707;28;20032;-59
2022/07/17 02:08:57;;;;;;;13.68;10.57;;;;;;;31.48;44.92;101617.34;4196864;28;20045;-58
2022/07/17 02:10:58;;;;;;;11.77;10.38;;;;;;;31.47;45.19;101621.31;4197526;28;20114;-58
2022/07/17 02:12:59;;;;;;;13.65;10.70;;;;;;;31.46;45.23;101624.50;4197221;28;20108;-58
2022/07/17 02:15:02;;;;;;;12.57;11.10;;;;;;;31.46;45.13;101624.50;4197402;28;20399;-60
2022/07/17 02:17:04;;;;;;;13.60;10.48;;;;;;;31.45;45.17;101622.84;4196752;28;20037;-58
2022/07/17 02:19:06;;;;;;;12.82;10.18;;;;;;;31.45;45.08;101622.84;4197194;28;20106;-58
2022/07/17 02:21:10;;;;;;;13.10;10.98;;;;;;;31.45;45.07;101625.66;4197564;28;20098;-59
2022/07/17 02:23:11;;;;;;;12.88;10.15;;;;;;;31.45;45.17;101622.84;4199975;28;20044;-58
2022/07/17 02:25:15;;;;;;;16.58;10.43;;;;;;;31.45;45.32;101634.16;4200817;28;20041;-58
2022/07/17 02:27:17;;;;;;;12.63;10.27;;;;;;;31.44;45.25;101627.66;4200569;28;20114;-58
2022/07/17 02:29:18;;;;;;;12.38;10.27;;;;;;;31.45;45.12;101634.16;4200394;28;20368;-58
2022/07/17 02:31:19;;;;;;;12.35;10.43;;;;;;;31.45;45.06;101642.63;4200676;28;20044;-58
2022/07/17 02:33:23;;;;;;;12.95;10.75;;;;;;;31.45;45.40;101639.81;4200429;28;20037;-58
2022/07/17 02:35:25;;;;;;;12.15;9.90;;;;;;;31.44;45.17;101649.47;4200470;28;20434;-58
2022/07/17 02:37:29;;;;;;;16.95;10.48;;;;;;;31.39;45.08;101636.34;4200470;28;20142;-59
2022/07/17 02:39:30;;;;;;;12.02;10.18;;;;;;;31.45;45.15;101639.81;4200051;28;20037;-59
2022/07/17 02:41:31;;;;;;;12.05;10.27;;;;;;;31.44;45.29;101629.66;4200550;28;20037;-58
2022/07/17 02:43:33;;;;;;;12.75;10.50;;;;;;;31.36;45.17;101631.34;4200482;28;20044;-58
2022/07/17 02:45:37;;;;;;;13.48;10.88;;;;;;;31.43;45.22;101636.47;4200352;28;20097;-58
2022/07/17 02:47:38;;;;;;;11.60;10.40;;;;;;;31.44;45.37;101643.81;4200413;28;20044;-58
2022/07/17 02:49:39;;;;;;;10.70;9.60;;;;;;;31.43;45.21;101642.13;4199575;28;20456;-58
2022/07/17 02:51:41;;;;;;;11.07;9.40;;;;;;;31.43;45.11;101653.44;4200376;28;20048;-59
2022/07/17 02:53:45;;;;;;;13.30;11.13;;;;;;;31.37;45.16;101650.78;4200228;28;20032;-58
2022/07/17 02:55:46;;;;;;;11.40;9.45;;;;;;;31.42;45.29;101657.44;4200253;28;20044;-58
2022/07/17 02:57:50;;;;;;;11.27;9.32;;;;;;;31.42;45.25;101668.75;4200117;28;20384;-58
2022/07/17 02:59:54;;;;;;;10.77;9.15;;;;;;;31.42;45.21;101657.44;4199979;28;20036;-58
2022/07/17 03:01:56;;;;;;;12.40;9.07;;;;;;;31.42;45.11;101668.75;4200314;28;20070;-58
2022/07/17 03:03:59;;;;;;;10.35;9.27;;;;;;;31.33;44.98;101644.16;4199902;28;20113;-58
2022/07/17 03:06:01;;;;;;;12.00;8.90;;;;;;;31.41;44.94;101669.94;4200147;28;20102;-58
2022/07/17 03:08:02;;;;;;;10.20;9.23;;;;;;;31.43;45.02;101667.59;4200167;28;20041;-58
2022/07/17 03:10:05;;;;;;;11.07;8.77;;;;;;;31.36;45.11;101657.63;4199914;28;20020;-58
2022/07/17 03:12:06;;;;;;;10.27;8.95;;;;;;;31.37;44.84;101662.09;4200005;28;20068;-58
2022/07/17 03:14:07;;;;;;;10.43;8.52;;;;;;;31.31;45.05;101642.84;4199572;28;20062;-58
2022/07/17 03:16:09;;;;;;;11.27;9.13;;;;;;;31.40;45.13;101656.97;4199876;28;20037;-58
2022/07/17 03:18:10;;;;;;;9.82;8.63;;;;;;;31.38;45.03;101660.97;4199803;28;20094;-58
2022/07/17 03:20:11;;;;;;;13.07;9.68;;;;;;;31.36;45.21;101648.31;4199251;28;20102;-58
2022/07/17 03:22:13;;;;;;;11.32;9.32;;;;;;;31.37;44.91;101647.97;4199696;28;20032;-58
2022/07/17 03:24:14;;;;;;;13.60;9.52;;;;;;;31.35;45.12;101641.84;4199600;28;20037;-58
2022/07/17 03:26:15;;;;;;;9.93;8.73;;;;;;;31.36;45.01;101649.13;4199448;28;20037;-58
2022/07/17 03:28:20;;;;;;;9.55;8.45;;;;;;;31.36;44.90;101646.31;4199871;28;20450;-58
2022/07/17 03:30:21;;;;;;;12.48;8.90;;;;;;;31.36;44.86;101651.97;4199186;28;20032;-58
2022/07/17 03:32:22;;;;;;;11.35;9.35;;;;;;;31.36;45.08;101659.63;4199924;28;20040;-58
2022/07/17 03:34:26;;;;;;;11.23;8.45;;;;;;;31.36;45.06;101643.47;4199682;28;20472;-58
2022/07/17 03:36:28;;;;;;;13.68;9.90;;;;;;;31.34;44.99;101645.84;4199696;28;20040;-58
2022/07/17 03:38:29;;;;;;;11.18;8.98;;;;;;;31.34;44.86;101654.31;4199113;28;20105;-58
2022/07/17 03:40:30;;;;;;;10.23;9.00;;;;;;;31.34;44.94;101654.31;4199339;28;20041;-58
2022/07/17 03:42:32;;;;;;;10.95;9.15;;;;;;;31.30;44.80;101650.50;4199777;28;20029;-58
2022/07/17 03:44:36;;;;;;;12.80;9.38;;;;;;;31.33;45.01;101658.28;4199424;28;20040;-58
2022/07/17 03:46:40;;;;;;;11.15;8.93;;;;;;;31.26;44.98;101649.47;4199443;28;20040;-58
2022/07/17 03:48:41;;;;;;;9.30;8.32;;;;;;;31.32;45.17;101652.97;4199260;28;20094;-58
2022/07/17 03:50:43;;;;;;;12.25;8.68;;;;;;;31.33;44.94;101654.63;4198356;28;20048;-58
2022/07/17 03:52:44;;;;;;;10.23;9.02;;;;;;;31.33;44.93;101657.47;4199473;28;20488;-58
2022/07/17 03:54:46;;;;;;;12.57;8.60;;;;;;;31.31;44.86;101651.31;4199303;28;20547;-58
2022/07/17 03:56:47;;;;;;;10.38;8.85;;;;;;;31.32;45.02;101658.63;4199354;28;20052;-58
2022/07/17 03:58:51;;;;;;;11.18;8.48;;;;;;;31.27;44.99;101659.63;4198965;28;20060;-60
2022/07/17 04:00:56;;;;;;;12.68;9.88;;;;;;;31.32;44.90;101659.47;4199083;28;20438;-60
2022/07/17 04:02:57;;;;;;;9.85;8.63;;;;;;;31.31;45.16;101652.16;4199305;28;20097;-57
2022/07/17 04:05:01;;;;;;;10.48;9.20;;;;;;;31.22;45.05;101642.81;4197454;28;20037;-60
2022/07/17 04:07:05;;;;;;;10.35;8.40;;;;;;;31.32;45.09;101653.81;4198826;28;20040;-58
2022/07/17 04:09:06;;;;;;;9.27;8.05;;;;;;;31.31;45.16;101657.81;4198882;28;20032;-60
2022/07/17 04:11:08;;;;;;;9.70;8.05;;;;;;;31.31;45.15;101651.31;4198999;28;20049;-58
2022/07/17 04:13:14;;;;;;;9.93;8.68;;;;;;;31.24;45.18;101648.97;4199012;28;20070;-58
2022/07/17 04:15:48;;;;;;;12.88;8.23;;;;;;;31.30;45.15;101650.50;4198884;28;20533;-57
2022/07/17 04:17:40;;;;;;;10.60;8.68;;;;;;;31.29;45.22;101654.47;4199055;28;20040;-57
2022/07/17 04:19:41;;;;;;;9.50;8.55;;;;;;;31.29;45.14;101654.47;4198691;28;20032;-58
2022/07/17 04:21:42;;;;;;;11.68;8.75;;;;;;;31.29;45.25;101637.50;4198780;28;20077;-59
2022/07/17 04:23:44;;;;;;;8.75;7.70;;;;;;;31.25;45.06;101642.16;4198811;28;20090;-60
2022/07/17 04:25:45;;;;;;;8.70;7.75;;;;;;;31.28;44.85;101635.84;4198753;28;20098;-60
2022/07/17 04:27:47;;;;;;;8.65;7.72;;;;;;;31.28;45.09;101647.16;4198825;28;20118;-60
2022/07/17 04:29:51;;;;;;;8.95;7.90;;;;;;;31.22;45.07;101625.84;4198185;28;20037;-59
2022/07/17 04:31:55;;;;;;;9.38;7.97;;;;;;;31.26;45.10;101628.84;4198759;28;20036;-60
2022/07/17 04:33:56;;;;;;;9.70;8.68;;;;;;;31.28;45.24;101638.66;4198801;28;20434;-60
2022/07/17 04:35:57;;;;;;;9.32;8.38;;;;;;;31.26;45.06;101632.50;4198619;28;20044;-59
2022/07/17 04:38:04;;;;;;;11.07;8.18;;;;;;;31.27;45.12;101628.53;4198677;28;20426;-60
2022/07/17 04:40:06;;;;;;;11.55;8.02;;;;;;;31.19;45.02;101609.56;4198264;28;20045;-59
2022/07/17 04:42:07;;;;;;;10.32;8.25;;;;;;;31.25;45.14;101624.34;4198557;28;20094;-59
2022/07/17 04:44:09;;;;;;;9.23;8.32;;;;;;;31.25;45.08;101625.19;4198400;28;20070;-60
2022/07/17 04:46:10;;;;;;;9.30;8.38;;;;;;;31.26;45.16;101629.69;4198154;28;20086;-60
2022/07/17 04:48:11;;;;;;;8.73;7.82;;;;;;;31.17;45.01;101626.03;4198421;28;20040;-60
2022/07/17 04:50:13;;;;;;;10.20;8.20;;;;;;;31.26;45.39;101631.69;4198197;28;20040;-60
2022/07/17 04:52:17;;;;;;;11.00;8.40;;;;;;;31.26;45.06;101626.03;4197911;28;20044;-60
2022/07/17 04:54:18;;;;;;;8.80;7.88;;;;;;;31.26;44.84;101614.72;4197858;28;20094;-59
2022/07/17 04:56:20;;;;;;;8.15;7.32;;;;;;;31.25;45.16;101616.72;4198146;28;20097;-59
2022/07/17 04:58:21;;;;;;;9.68;7.45;;;;;;;31.24;45.27;101612.19;4198216;28;20036;-60
2022/07/17 05:00:23;;;;;;;9.25;7.53;;;;;;;31.02;44.77;101578.47;4197925;28;20028;-60
2022/07/17 05:02:24;;;;;;;7.95;7.10;;;;;;;31.24;44.87;101606.53;4198244;28;20036;-60
2022/07/17 05:04:25;;;;;;;9.02;7.57;;;;;;;31.24;45.17;101612.19;4197921;28;20032;-60
2022/07/17 05:06:29;;;;;;;9.05;7.15;;;;;;;31.24;45.06;101612.19;4198211;28;20109;-60
2022/07/17 05:08:31;;;;;;;10.93;8.13;;;;;;;31.23;45.25;101616.19;4197610;28;20463;-59
2022/07/17 05:10:32;;;;;;;9.68;7.60;;;;;;;31.24;44.98;101612.19;4198208;28;20036;-59
2022/07/17 05:12:36;;;;;;;8.77;7.60;;;;;;;31.24;45.17;101609.38;4198084;28;20142;-59
2022/07/17 05:14:37;;;;;;;12.98;8.68;;;;;;;31.24;45.17;101603.72;4197601;28;20389;-59
2022/07/17 05:16:39;;;;;;;9.45;8.27;;;;;;;31.24;45.03;101606.53;4197917;28;20468;-59
2022/07/17 05:18:40;;;;;;;8.30;7.47;;;;;;;31.23;45.13;101607.72;4197576;28;20044;-60
2022/07/17 05:20:42;;;;;;;8.40;7.25;;;;;;;31.17;45.28;101589.28;4197507;28;20076;-59
2022/07/17 05:22:43;;;;;;;9.80;8.15;;;;;;;31.22;45.34;101597.59;4197776;28;20048;-60
2022/07/17 05:24:44;;;;;;;8.90;7.80;;;;;;;31.23;45.38;101599.22;4197703;28;20032;-59
2022/07/17 05:26:46;;;;;;;8.57;7.03;;;;;;;31.22;45.04;101597.59;4197444;28;20449;-59
2022/07/17 05:28:47;;;;;;;8.77;7.75;;;;;;;31.22;45.27;101594.75;4197532;28;20029;-60
2022/07/17 05:30:48;;;;;;;9.30;7.53;;;;;;;31.22;45.27;101589.09;4197526;28;20098;-60
2022/07/17 05:32:50;;;;;;;8.63;7.72;;;;;;;31.20;45.44;101582.94;4197203;28;20037;-60
2022/07/17 05:34:54;;;;;;;10.70;7.97;;;;;;;31.23;45.18;101595.59;4197675;28;20431;-59
2022/07/17 05:36:57;;;;;;;10.98;8.13;;;;;;;31.21;45.17;101595.94;4197291;28;20044;-60
2022/07/17 05:39:01;;;;;;;9.07;7.70;;;;;;;31.21;45.35;101598.75;4197394;28;20090;-60
2022/07/17 05:41:04;;;;;;;11.10;8.02;;;;;;;31.22;45.23;101596.75;4197781;28;20549;-59
2022/07/17 05:43:05;;;;;;;8.77;7.55;;;;;;;31.22;45.24;101597.59;4197588;28;20537;-60
2022/07/17 05:45:09;;;;;;;8.52;7.57;;;;;;;31.22;45.12;101594.75;4197606;28;20032;-59
2022/07/17 05:47:10;;;;;;;9.32;8.32;;;;;;;31.21;44.99;101593.09;4197698;28;20472;-59
2022/07/17 05:49:12;;;;;;;8.45;6.68;;;;;;;31.22;45.22;101597.59;4197329;28;20090;-60
2022/07/17 05:51:13;;;;;;;8.77;7.43;;;;;;;31.21;45.21;101595.94;4197552;28;20040;-59
2022/07/17 05:53:15;;;;;;;10.10;7.70;;;;;;;31.21;45.04;101593.09;4197709;28;20526;-59
2022/07/17 05:55:19;;;;;;;7.95;7.13;;;;;;;31.21;45.32;101592.28;4197272;28;20454;-60
2022/07/17 05:57:20;;;;;;;10.10;7.13;;;;;;;31.22;45.15;101591.94;4196620;28;20036;-59
2022/07/17 05:59:21;;;;;;;8.73;7.07;;;;;;;31.18;45.05;101590.94;4196884;28;20032;-60
2022/07/17 06:01:23;;;;;;;8.63;7.47;;;;;;;31.21;45.08;101595.09;4197167;28;20101;-59
2022/07/17 06:03:24;;;;;;;9.88;7.40;;;;;;;31.20;45.12;101588.59;4197415;28;20407;-59
2022/07/17 06:05:28;;;;;;;8.75;7.07;;;;;;;31.20;45.22;101593.41;4197410;28;20037;-60
2022/07/17 06:07:38;;;;;;;9.82;7.45;;;;;;;31.19;44.95;101581.28;4197497;28;20054;-59
2022/07/17 06:09:39;;;;;;;8.13;7.32;;;;;;;31.20;45.22;101588.59;4197021;28;20433;-59
2022/07/17 06:11:40;;;;;;;7.88;7.18;;;;;;;31.18;45.15;101585.28;4197390;28;20110;-60
2022/07/17 06:13:42;;;;;;;8.68;7.78;;;;;;;31.18;45.01;101584.44;4197432;28;20040;-59
2022/07/17 06:15:43;;;;;;;8.50;7.60;;;;;;;31.19;45.22;101584.09;4197318;28;20106;-60
2022/07/17 06:17:51;;;;;;;8.35;7.45;;;;;;;31.19;45.04;101586.09;4197168;28;20483;-59
2022/07/17 06:19:58;;;;;;;8.32;7.53;;;;;;;31.18;45.17;101590.94;4196556;28;20041;-59
2022/07/17 06:22:00;;;;;;;7.53;6.75;;;;;;;31.19;45.35;101592.59;4197348;28;20036;-59
2022/07/17 06:24:01;;;;;;;7.80;6.97;;;;;;;31.12;45.26;101580.97;4197420;28;20037;-59
2022/07/17 06:26:02;;;;;;;8.50;7.45;;;;;;;31.18;45.00;101590.09;4195808;28;20499;-60
2022/07/17 06:28:04;;;;;;;7.97;7.18;;;;;;;31.19;45.18;101586.09;4197313;28;20044;-60
2022/07/17 06:30:06;;;;;;;7.85;7.07;;;;;;;31.18;45.22;101596.59;4197210;28;20040;-59
2022/07/17 06:32:10;;;;;;;8.93;7.40;;;;;;;31.18;45.21;101590.94;4197230;28;20036;-60
2022/07/17 06:34:11;;;;;;;8.48;7.68;;;;;;;31.19;45.23;101595.41;4197330;28;20545;-60
2022/07/17 06:36:15;;;;;;;7.82;7.05;;;;;;;31.18;45.08;101599.41;4197239;28;20106;-60
2022/07/17 06:38:17;;;;;;;7.70;6.90;;;;;;;31.17;45.30;101589.28;4197480;28;20033;-59
2022/07/17 06:40:18;;;;;;;8.43;7.05;;;;;;;31.17;45.24;101594.94;4196888;28;20040;-59
2022/07/17 06:42:19;;;;;;;7.93;7.18;;;;;;;31.11;45.25;101590.59;4197291;28;20094;-59
2022/07/17 06:44:21;;;;;;;8.48;7.43;;;;;;;31.16;45.21;101598.94;4197279;28;20098;-59
2022/07/17 06:46:22;;;;;;;8.00;7.20;;;;;;;31.17;45.18;101603.41;4197181;28;20674;-59
2022/07/17 06:48:23;;;;;;;7.55;6.75;;;;;;;31.14;45.32;101601.25;4197122;28;20048;-59
2022/07/17 06:50:28;;;;;;;8.18;6.90;;;;;;;31.14;45.34;101601.25;4197048;28;20066;-60
2022/07/17 06:52:29;;;;;;;7.93;7.13;;;;;;;31.15;45.09;101602.91;4196962;28;20049;-60
2022/07/17 06:54:31;;;;;;;7.82;7.13;;;;;;;31.16;45.11;101598.94;4196950;28;20102;-60
2022/07/17 06:56:35;;;;;;;8.68;7.72;;;;;;;31.16;45.45;101592.44;4197045;28;20565;-59
2022/07/17 06:58:36;;;;;;;8.30;7.32;;;;;;;31.15;45.16;101585.94;4196816;28;20330;-59
2022/07/17 07:00:39;;;;;;;7.55;6.65;;;;;;;31.07;45.48;101579.16;4196801;28;20062;-59
2022/07/17 07:02:42;;;;;;;8.45;7.32;;;;;;;31.16;45.27;101583.94;4197113;28;20094;-60
2022/07/17 07:04:44;;;;;;;9.47;7.93;;;;;;;31.14;45.01;101572.97;4197030;28;20041;-60
2022/07/17 07:06:45;;;;;;;7.55;6.72;;;;;;;31.14;45.47;101575.81;4196768;28;20675;-60
2022/07/17 07:08:49;;;;;;;7.90;7.03;;;;;;;31.14;45.48;101578.63;4198393;28;20036;-59
2022/07/17 07:10:51;;;;;;;10.00;7.40;;;;;;;31.14;45.51;101578.63;4200174;28;20416;-60
2022/07/17 07:12:53;;;;;;;7.55;6.78;;;;;;;31.14;45.24;101572.97;4199829;28;20126;-59
2022/07/17 07:14:57;;;;;;;8.25;7.00;;;;;;;31.14;45.31;101567.31;4199857;28;20036;-58
2022/07/17 07:16:58;;;;;;;7.32;6.72;;;;;;;31.14;45.27;101572.97;4199552;28;20496;-59
2022/07/17 07:19:00;;;;;;;9.70;7.05;;;;;;;31.13;45.34;101568.50;4196803;28;20078;-60
2022/07/17 07:21:02;;;;;;;7.97;7.05;;;;;;;31.12;45.41;101559.19;4199796;28;20102;-61
2022/07/17 07:23:06;;;;;;;7.80;7.00;;;;;;;31.13;45.07;101577.81;4200377;28;20074;-58
2022/07/17 07:25:08;;;;;;;7.97;7.03;;;;;;;31.13;45.31;101577.81;4199496;28;20044;-60
2022/07/17 07:27:09;;;;;;;8.38;7.55;;;;;;;31.13;45.32;101572.16;4199810;28;20086;-60
2022/07/17 07:29:11;;;;;;;8.23;7.43;;;;;;;31.12;45.53;101570.50;4199521;28;20082;-58
2022/07/17 07:31:12;;;;;;;7.35;6.65;;;;;;;31.12;45.56;101558.38;4198394;28;20036;-59
2022/07/17 07:33:16;;;;;;;7.88;7.05;;;;;;;31.13;45.40;101560.03;4199580;28;20101;-59
2022/07/17 07:35:18;;;;;;;8.57;7.70;;;;;;;31.12;45.15;101558.38;4199546;28;20044;-59
2022/07/17 07:37:19;;;;;;;9.70;7.55;;;;;;;31.11;45.25;101554.72;4199619;28;20082;-59
2022/07/17 07:39:20;;;;;;;7.53;6.57;;;;;;;31.12;45.51;101556.38;4199055;28;20558;-58
2022/07/17 07:41:24;;;;;;;7.78;7.00;;;;;;;31.12;45.58;101564.03;4199371;28;20036;-59
2022/07/17 07:43:26;;;;;;;8.63;7.18;;;;;;;31.12;45.27;101547.06;4199649;28;20040;-58
2022/07/17 07:45:27;;;;;;;8.43;6.88;;;;;;;31.11;45.52;101548.19;4199201;28;20036;-59
2022/07/17 07:47:28;;;;;;;8.63;6.95;;;;;;;31.10;45.40;101538.06;4199563;28;20044;-59
2022/07/17 07:49:30;;;;;;;7.95;6.63;;;;;;;31.09;45.51;101539.25;4199194;28;20036;-58
2022/07/17 07:51:34;;;;;;;7.68;6.97;;;;;;;31.10;45.59;101538.06;4197777;28;20462;-59
2022/07/17 07:53:35;;;;;;;8.20;7.40;;;;;;;31.06;45.56;101542.72;4199451;28;20049;-58
2022/07/17 07:55:39;;;;;;;8.05;6.72;;;;;;;31.08;45.19;101544.06;4198703;28;20442;-58
2022/07/17 07:57:41;;;;;;;8.70;7.25;;;;;;;31.09;45.22;101537.25;4199293;28;20041;-61
2022/07/17 07:59:42;;;;;;;7.05;6.30;;;;;;;31.08;45.20;101529.09;4198683;28;20053;-59
2022/07/17 08:01:43;;;;;;;7.35;6.63;;;;;;;31.08;45.28;101529.94;4198624;28;20098;-58
2022/07/17 08:03:45;;;;;;;8.05;7.25;;;;;;;31.09;45.40;101528.75;4199245;28;20040;-58
2022/07/17 08:05:46;;;;;;;7.80;6.97;;;;;;;31.09;45.54;101525.09;4199049;28;20430;-58
2022/07/17 08:07:47;;;;;;;7.65;6.85;;;;;;;31.08;45.51;101526.28;4198997;28;20036;-59
2022/07/17 08:09:49;;;;;;;6.97;6.38;;;;;;;31.08;45.36;101529.94;4198888;28;20110;-59
2022/07/17 08:11:50;;;;;;;7.47;6.78;;;;;;;31.08;45.42;101523.47;4199127;28;20041;-58
2022/07/17 08:13:54;;;;;;;7.25;6.53;;;;;;;31.08;45.38;101529.09;4199166;28;20040;-58
2022/07/17 08:15:56;;;;;;;6.72;6.13;;;;;;;31.08;45.28;101537.59;4199150;28;20048;-58
2022/07/17 08:17:57;;;;;;;8.80;7.13;;;;;;;31.08;45.64;101538.41;4198746;28;20029;-58
2022/07/17 08:19:58;;;;;;;7.03;6.38;;;;;;;31.07;45.53;101533.94;4197928;28;20411;-58
2022/07/17 08:22:00;;;;;;;8.75;7.28;;;;;;;31.07;45.56;101533.09;4198706;28;20100;-58
2022/07/17 08:24:01;;;;;;;7.50;6.63;;;;;;;31.06;45.56;101531.44;4198490;28;20044;-59
2022/07/17 08:26:03;;;;;;;6.65;6.05;;;;;;;31.07;45.40;101544.41;4198553;28;20487;-59
2022/07/17 08:28:07;;;;;;;7.15;6.45;;;;;;;31.03;45.26;101534.94;4195687;28;20044;-58
2022/07/17 08:30:10;;;;;;;7.88;6.95;;;;;;;31.06;45.61;101534.25;4198594;28;20102;-58
2022/07/17 08:32:12;;;;;;;7.05;6.35;;;;;;;31.04;45.25;101528.13;4198774;28;20036;-58
2022/07/17 08:34:14;;;;;;;7.47;6.60;;;;;;;31.06;45.25;101528.59;4198908;28;20098;-58
2022/07/17 08:36:15;;;;;;;8.48;6.68;;;;;;;31.06;45.35;101531.44;4198665;28;20040;-58
2022/07/17 08:38:17;;;;;;;7.90;7.10;;;;;;;31.06;45.58;101539.91;4198641;28;20488;-58
2022/07/17 08:40:22;;;;;;;7.97;7.18;;;;;;;31.05;45.51;101535.44;4198439;28;20041;-58
2022/07/17 08:42:31;;;;;;;7.90;7.18;;;;;;;31.04;45.56;101530.94;4198820;28;20513;-58
2022/07/17 08:44:35;;;;;;;7.25;6.55;;;;;;;31.04;45.52;101534.59;4198542;28;20550;-58
2022/07/17 08:46:39;;;;;;;9.10;6.55;;;;;;;31.05;45.43;101524.13;4198677;28;20365;-58
2022/07/17 08:48:41;;;;;;;7.82;6.78;;;;;;;31.06;45.30;101525.78;4198271;28;20476;-59
2022/07/17 08:50:47;;;;;;;7.65;6.32;;;;;;;31.05;45.41;101521.28;4198492;28;20040;-58
2022/07/17 08:52:48;;;;;;;8.18;7.25;;;;;;;31.04;45.66;101514.81;4198603;28;20032;-58
2022/07/17 08:54:49;;;;;;;7.30;6.60;;;;;;;31.05;45.65;101518.47;4198410;28;20113;-57
2022/07/17 08:56:51;;;;;;;7.00;6.15;;;;;;;31.05;45.48;101518.47;4198515;28;20049;-58
2022/07/17 08:58:55;;;;;;;6.90;6.25;;;;;;;31.04;45.63;101519.63;4197957;28;20109;-58
2022/07/17 09:00:56;;;;;;;;;;;;;;;31.01;45.38;101506.16;4198808;28;20046;-58
2022/07/17 09:03:07;;;;;;;7.38;6.20;;;;;;;31.06;45.52;101517.28;4198659;28;19958;-58
2022/07/17 09:05:19;;;;;;;7.93;6.80;;;;;;;31.07;45.57;101530.28;4198275;28;20502;-58
2022/07/17 09:07:24;;;;;;;7.15;6.45;;;;;;;31.06;45.35;101525.78;4198286;28;20044;-59
2022/07/17 09:09:25;;;;;;;8.38;7.15;;;;;;;31.05;45.66;101524.13;4197920;28;20090;-58
2022/07/17 09:11:29;;;;;;;6.53;5.88;;;;;;;31.04;45.30;101528.94;4198153;28;20040;-59
2022/07/17 09:13:31;;;;;;;7.35;6.25;;;;;;;31.03;45.51;101518.00;4197737;28;20098;-59
2022/07/17 09:15:33;;;;;;;7.70;6.80;;;;;;;31.03;45.72;101524.47;4198145;28;20033;-59
2022/07/17 09:17:34;;;;;;;7.82;6.15;;;;;;;31.02;45.59;101525.63;4198142;28;20090;-58
2022/07/17 09:19:45;;;;;;;7.65;6.72;;;;;;;30.94;45.57;101514.34;4197567;28;20040;-58
2022/07/17 09:21:46;;;;;;;7.53;6.80;;;;;;;31.01;45.66;101523.97;4198162;28;20028;-59
2022/07/17 09:24:02;;;;;;;7.72;6.93;;;;;;;31.00;45.48;101518.66;4198289;28;20055;-58
2022/07/17 09:26:04;;;;;;;6.97;6.32;;;;;;;31.00;45.58;101516.66;4197561;28;20037;-58
2022/07/17 09:28:07;;;;;;;7.43;6.60;;;;;;;31.01;45.64;101523.13;4197948;28;20036;-59